sensor_id;sensor_type;location;lat;lon;timestamp;P1;durP1;ratioP1;P2;durP2;ratioP2
12088;SDS011;6107;49.078;8.578;2022-08-01T00:01:14;5.15;;;2.88;;
12088;SDS011;6107;49.078;8.578;2022-08-01T00:03:40;6.25;;;2.90;;
12088;SDS011;6107;49.078;8.578;2022-08-01T00:06:05;4.85;;;3.03;;
12088;SDS011;6107;49.078;8.578;2022-08-01T00:08:31;3.22;;;2.90;;
12088;SDS011;6107;49.078;8.578;2022-08-01T00:10:57;3.00;;;2.70;;
12088;SDS011;6107;49.078;8.578;2022-08-01T00:13:22;5.70;;;3.03;;
12088;SDS011;6107;49.078;8.578;2022-08-01T00:15:48;3.40;;;2.63;;
12088;SDS011;6107;49.078;8.578;2022-08-01T00:18:13;3.35;;;2.90;;
12088;SDS011;6107;49.078;8.578;2022-08-01T00:20:39;3.33;;;2.97;;
12088;SDS011;6107;49.078;8.578;2022-08-01T00:23:04;4.50;;;2.92;;
12088;SDS011;6107;49.078;8.578;2022-08-01T00:25:30;6.15;;;2.75;;
12088;SDS011;6107;49.078;8.578;2022-08-01T00:27:56;3.13;;;2.83;;
12088;SDS011;6107;49.078;8.578;2022-08-01T00:30:21;3.67;;;3.00;;
12088;SDS011;6107;49.078;8.578;2022-08-01T00:32:47;3.58;;;2.95;;
12088;SDS011;6107;49.078;8.578;2022-08-01T00:35:12;5.18;;;3.10;;
12088;SDS011;6107;49.078;8.578;2022-08-01T00:37:38;6.22;;;2.90;;
12088;SDS011;6107;49.078;8.578;2022-08-01T00:40:04;3.83;;;3.10;;
12088;SDS011;6107;49.078;8.578;2022-08-01T00:42:30;3.72;;;2.70;;
12088;SDS011;6107;49.078;8.578;2022-08-01T00:44:56;5.05;;;3.30;;
12088;SDS011;6107;49.078;8.578;2022-08-01T00:47:22;3.60;;;2.92;;
12088;SDS011;6107;49.078;8.578;2022-08-01T00:49:47;5.45;;;3.10;;
12088;SDS011;6107;49.078;8.578;2022-08-01T00:52:13;2.97;;;2.67;;
12088;SDS011;6107;49.078;8.578;2022-08-01T00:54:38;3.30;;;3.00;;
12088;SDS011;6107;49.078;8.578;2022-08-01T00:57:04;3.30;;;3.00;;
12088;SDS011;6107;49.078;8.578;2022-08-01T00:59:30;2.88;;;2.58;;
12088;SDS011;6107;49.078;8.578;2022-08-01T01:01:56;5.35;;;3.30;;
12088;SDS011;6107;49.078;8.578;2022-08-01T01:04:22;3.20;;;2.90;;
12088;SDS011;6107;49.078;8.578;2022-08-01T01:06:48;5.10;;;3.17;;
12088;SDS011;6107;49.078;8.578;2022-08-01T01:09:39;4.18;;;3.05;;
12088;SDS011;6107;49.078;8.578;2022-08-01T01:12:14;3.30;;;2.95;;
12088;SDS011;6107;49.078;8.578;2022-08-01T01:17:31;3.10;;;2.80;;
12088;SDS011;6107;49.078;8.578;2022-08-01T01:20:21;3.55;;;3.25;;
12088;SDS011;6107;49.078;8.578;2022-08-01T01:26:01;3.47;;;2.88;;
12088;SDS011;6107;49.078;8.578;2022-08-01T01:28:33;3.05;;;2.75;;
12088;SDS011;6107;49.078;8.578;2022-08-01T01:31:13;4.85;;;3.13;;
12088;SDS011;6107;49.078;8.578;2022-08-01T01:33:41;4.93;;;3.22;;
12088;SDS011;6107;49.078;8.578;2022-08-01T01:36:09;4.75;;;2.90;;
12088;SDS011;6107;49.078;8.578;2022-08-01T01:38:39;3.35;;;3.03;;
12088;SDS011;6107;49.078;8.578;2022-08-01T01:41:08;4.82;;;2.83;;
12088;SDS011;6107;49.078;8.578;2022-08-01T01:43:36;3.20;;;2.90;;
12088;SDS011;6107;49.078;8.578;2022-08-01T01:46:03;2.95;;;2.72;;
12088;SDS011;6107;49.078;8.578;2022-08-01T01:48:30;4.72;;;3.03;;
12088;SDS011;6107;49.078;8.578;2022-08-01T01:50:57;2.92;;;2.70;;
12088;SDS011;6107;49.078;8.578;2022-08-01T01:53:25;4.30;;;3.05;;
12088;SDS011;6107;49.078;8.578;2022-08-01T01:55:55;3.22;;;2.92;;
12088;SDS011;6107;49.078;8.578;2022-08-01T01:58:22;4.10;;;2.90;;
12088;SDS011;6107;49.078;8.578;2022-08-01T02:00:49;3.75;;;3.30;;
12088;SDS011;6107;49.078;8.578;2022-08-01T02:03:17;4.30;;;2.97;;
12088;SDS011;6107;49.078;8.578;2022-08-01T02:05:44;3.30;;;3.00;;
12088;SDS011;6107;49.078;8.578;2022-08-01T02:08:11;3.65;;;2.95;;
12088;SDS011;6107;49.078;8.578;2022-08-01T02:10:41;3.45;;;3.03;;
12088;SDS011;6107;49.078;8.578;2022-08-01T02:13:30;4.03;;;3.05;;
12088;SDS011;6107;49.078;8.578;2022-08-01T02:15:56;3.75;;;3.20;;
12088;SDS011;6107;49.078;8.578;2022-08-01T02:18:23;3.67;;;3.10;;
12088;SDS011;6107;49.078;8.578;2022-08-01T02:20:49;3.22;;;2.88;;
12088;SDS011;6107;49.078;8.578;2022-08-01T02:23:17;4.30;;;3.05;;
12088;SDS011;6107;49.078;8.578;2022-08-01T02:25:44;3.33;;;2.80;;
12088;SDS011;6107;49.078;8.578;2022-08-01T02:28:15;3.95;;;2.92;;
12088;SDS011;6107;49.078;8.578;2022-08-01T02:30:50;2.90;;;2.70;;
12088;SDS011;6107;49.078;8.578;2022-08-01T02:33:19;5.05;;;3.00;;
12088;SDS011;6107;49.078;8.578;2022-08-01T02:35:50;3.03;;;2.70;;
12088;SDS011;6107;49.078;8.578;2022-08-01T02:38:17;3.10;;;2.80;;
12088;SDS011;6107;49.078;8.578;2022-08-01T02:40:45;3.20;;;2.90;;
12088;SDS011;6107;49.078;8.578;2022-08-01T02:43:14;3.72;;;2.97;;
12088;SDS011;6107;49.078;8.578;2022-08-01T02:45:45;4.10;;;3.65;;
12088;SDS011;6107;49.078;8.578;2022-08-01T02:48:15;4.55;;;3.20;;
12088;SDS011;6107;49.078;8.578;2022-08-01T02:50:44;3.50;;;3.20;;
12088;SDS011;6107;49.078;8.578;2022-08-01T02:53:13;3.80;;;2.92;;
12088;SDS011;6107;49.078;8.578;2022-08-01T02:55:41;4.68;;;3.28;;
12088;SDS011;6107;49.078;8.578;2022-08-01T02:58:09;3.63;;;3.00;;
12088;SDS011;6107;49.078;8.578;2022-08-01T03:00:36;3.65;;;3.35;;
12088;SDS011;6107;49.078;8.578;2022-08-01T03:03:03;3.47;;;3.15;;
12088;SDS011;6107;49.078;8.578;2022-08-01T03:05:31;3.67;;;3.10;;
12088;SDS011;6107;49.078;8.578;2022-08-01T03:07:58;6.63;;;2.72;;
12088;SDS011;6107;49.078;8.578;2022-08-01T03:10:26;4.50;;;3.05;;
12088;SDS011;6107;49.078;8.578;2022-08-01T03:12:52;4.53;;;3.40;;
12088;SDS011;6107;49.078;8.578;2022-08-01T03:15:19;5.13;;;3.25;;
12088;SDS011;6107;49.078;8.578;2022-08-01T03:17:47;3.28;;;2.97;;
12088;SDS011;6107;49.078;8.578;2022-08-01T03:20:15;3.88;;;3.03;;
12088;SDS011;6107;49.078;8.578;2022-08-01T03:22:43;5.07;;;3.42;;
12088;SDS011;6107;49.078;8.578;2022-08-01T03:25:10;3.40;;;3.10;;
12088;SDS011;6107;49.078;8.578;2022-08-01T03:27:38;4.57;;;3.10;;
12088;SDS011;6107;49.078;8.578;2022-08-01T03:30:06;5.28;;;3.00;;
12088;SDS011;6107;49.078;8.578;2022-08-01T03:32:32;4.03;;;3.10;;
12088;SDS011;6107;49.078;8.578;2022-08-01T03:34:58;5.13;;;3.30;;
12088;SDS011;6107;49.078;8.578;2022-08-01T03:37:25;3.80;;;3.30;;
12088;SDS011;6107;49.078;8.578;2022-08-01T03:40:09;4.07;;;3.30;;
12088;SDS011;6107;49.078;8.578;2022-08-01T03:42:44;4.07;;;3.17;;
12088;SDS011;6107;49.078;8.578;2022-08-01T03:45:15;4.20;;;3.33;;
12088;SDS011;6107;49.078;8.578;2022-08-01T03:47:48;3.20;;;2.90;;
12088;SDS011;6107;49.078;8.578;2022-08-01T03:50:17;5.63;;;2.95;;
12088;SDS011;6107;49.078;8.578;2022-08-01T03:52:47;3.30;;;2.78;;
12088;SDS011;6107;49.078;8.578;2022-08-01T03:55:15;3.72;;;3.30;;
12088;SDS011;6107;49.078;8.578;2022-08-01T03:57:41;2.97;;;2.67;;
12088;SDS011;6107;49.078;8.578;2022-08-01T04:00:08;3.78;;;3.00;;
12088;SDS011;6107;49.078;8.578;2022-08-01T04:02:34;6.80;;;3.20;;
12088;SDS011;6107;49.078;8.578;2022-08-01T04:05:02;3.92;;;3.00;;
12088;SDS011;6107;49.078;8.578;2022-08-01T04:07:32;3.58;;;2.83;;
12088;SDS011;6107;49.078;8.578;2022-08-01T04:10:00;3.17;;;2.88;;
12088;SDS011;6107;49.078;8.578;2022-08-01T04:12:26;3.42;;;3.13;;
12088;SDS011;6107;49.078;8.578;2022-08-01T04:14:52;4.55;;;3.25;;
12088;SDS011;6107;49.078;8.578;2022-08-01T04:17:18;4.97;;;3.20;;
12088;SDS011;6107;49.078;8.578;2022-08-01T04:19:44;4.72;;;3.08;;
12088;SDS011;6107;49.078;8.578;2022-08-01T04:22:10;3.45;;;3.10;;
12088;SDS011;6107;49.078;8.578;2022-08-01T04:24:38;4.90;;;3.15;;
12088;SDS011;6107;49.078;8.578;2022-08-01T04:27:08;5.80;;;3.00;;
12088;SDS011;6107;49.078;8.578;2022-08-01T04:29:36;3.60;;;2.90;;
12088;SDS011;6107;49.078;8.578;2022-08-01T04:32:03;3.88;;;3.15;;
12088;SDS011;6107;49.078;8.578;2022-08-01T04:34:32;3.45;;;2.80;;
12088;SDS011;6107;49.078;8.578;2022-08-01T04:36:58;6.25;;;3.13;;
12088;SDS011;6107;49.078;8.578;2022-08-01T04:39:26;3.50;;;3.20;;
12088;SDS011;6107;49.078;8.578;2022-08-01T04:41:53;3.33;;;2.92;;
12088;SDS011;6107;49.078;8.578;2022-08-01T04:44:22;3.88;;;3.58;;
12088;SDS011;6107;49.078;8.578;2022-08-01T04:46:48;4.68;;;3.28;;
12088;SDS011;6107;49.078;8.578;2022-08-01T04:49:15;3.38;;;3.05;;
12088;SDS011;6107;49.078;8.578;2022-08-01T04:51:51;3.90;;;3.22;;
12088;SDS011;6107;49.078;8.578;2022-08-01T04:54:22;3.70;;;3.20;;
12088;SDS011;6107;49.078;8.578;2022-08-01T04:56:52;4.05;;;2.90;;
12088;SDS011;6107;49.078;8.578;2022-08-01T04:59:20;4.15;;;3.33;;
12088;SDS011;6107;49.078;8.578;2022-08-01T05:02:09;4.88;;;3.38;;
12088;SDS011;6107;49.078;8.578;2022-08-01T05:04:36;3.42;;;3.08;;
12088;SDS011;6107;49.078;8.578;2022-08-01T05:07:03;4.18;;;3.10;;
12088;SDS011;6107;49.078;8.578;2022-08-01T05:09:29;3.20;;;2.90;;
12088;SDS011;6107;49.078;8.578;2022-08-01T05:11:55;3.72;;;3.28;;
12088;SDS011;6107;49.078;8.578;2022-08-01T05:14:23;3.67;;;2.90;;
12088;SDS011;6107;49.078;8.578;2022-08-01T05:16:50;3.83;;;3.28;;
12088;SDS011;6107;49.078;8.578;2022-08-01T05:19:16;4.68;;;3.28;;
12088;SDS011;6107;49.078;8.578;2022-08-01T05:21:41;4.55;;;3.20;;
12088;SDS011;6107;49.078;8.578;2022-08-01T05:24:07;3.72;;;3.30;;
12088;SDS011;6107;49.078;8.578;2022-08-01T05:26:33;3.80;;;3.35;;
12088;SDS011;6107;49.078;8.578;2022-08-01T05:28:59;4.43;;;3.25;;
12088;SDS011;6107;49.078;8.578;2022-08-01T05:31:24;3.97;;;3.50;;
12088;SDS011;6107;49.078;8.578;2022-08-01T05:33:50;3.83;;;3.00;;
12088;SDS011;6107;49.078;8.578;2022-08-01T05:36:16;3.50;;;3.20;;
12088;SDS011;6107;49.078;8.578;2022-08-01T05:38:41;4.15;;;3.30;;
12088;SDS011;6107;49.078;8.578;2022-08-01T05:41:07;5.43;;;3.20;;
12088;SDS011;6107;49.078;8.578;2022-08-01T05:43:32;3.75;;;3.28;;
12088;SDS011;6107;49.078;8.578;2022-08-01T05:45:58;3.53;;;3.22;;
12088;SDS011;6107;49.078;8.578;2022-08-01T05:48:24;5.28;;;3.38;;
12088;SDS011;6107;49.078;8.578;2022-08-01T05:50:49;4.38;;;3.33;;
12088;SDS011;6107;49.078;8.578;2022-08-01T05:53:15;4.07;;;3.33;;
12088;SDS011;6107;49.078;8.578;2022-08-01T05:55:41;3.83;;;3.35;;
12088;SDS011;6107;49.078;8.578;2022-08-01T05:58:07;4.75;;;2.90;;
12088;SDS011;6107;49.078;8.578;2022-08-01T06:00:32;6.60;;;3.28;;
12088;SDS011;6107;49.078;8.578;2022-08-01T06:02:58;3.90;;;3.17;;
12088;SDS011;6107;49.078;8.578;2022-08-01T06:05:23;3.80;;;3.15;;
12088;SDS011;6107;49.078;8.578;2022-08-01T06:07:49;5.20;;;3.40;;
12088;SDS011;6107;49.078;8.578;2022-08-01T06:10:14;3.97;;;3.35;;
12088;SDS011;6107;49.078;8.578;2022-08-01T06:12:40;4.15;;;3.33;;
12088;SDS011;6107;49.078;8.578;2022-08-01T06:15:06;4.38;;;3.17;;
12088;SDS011;6107;49.078;8.578;2022-08-01T06:17:32;3.88;;;3.20;;
12088;SDS011;6107;49.078;8.578;2022-08-01T06:19:58;3.25;;;2.95;;
12088;SDS011;6107;49.078;8.578;2022-08-01T06:22:24;4.88;;;3.20;;
12088;SDS011;6107;49.078;8.578;2022-08-01T06:24:49;4.35;;;3.17;;
12088;SDS011;6107;49.078;8.578;2022-08-01T06:27:15;3.70;;;3.20;;
12088;SDS011;6107;49.078;8.578;2022-08-01T06:29:41;4.32;;;3.33;;
12088;SDS011;6107;49.078;8.578;2022-08-01T06:32:08;5.03;;;3.45;;
12088;SDS011;6107;49.078;8.578;2022-08-01T06:34:34;5.07;;;3.15;;
12088;SDS011;6107;49.078;8.578;2022-08-01T06:37:00;3.65;;;2.97;;
12088;SDS011;6107;49.078;8.578;2022-08-01T06:39:26;6.03;;;3.20;;
12088;SDS011;6107;49.078;8.578;2022-08-01T06:41:51;3.92;;;2.97;;
12088;SDS011;6107;49.078;8.578;2022-08-01T06:44:17;4.60;;;2.88;;
12088;SDS011;6107;49.078;8.578;2022-08-01T06:46:42;6.10;;;3.10;;
12088;SDS011;6107;49.078;8.578;2022-08-01T06:49:08;3.53;;;2.60;;
12088;SDS011;6107;49.078;8.578;2022-08-01T06:51:33;3.55;;;3.00;;
12088;SDS011;6107;49.078;8.578;2022-08-01T06:53:59;3.00;;;2.67;;
12088;SDS011;6107;49.078;8.578;2022-08-01T06:56:25;6.70;;;2.85;;
12088;SDS011;6107;49.078;8.578;2022-08-01T06:58:51;6.25;;;2.97;;
12088;SDS011;6107;49.078;8.578;2022-08-01T07:01:17;5.07;;;2.97;;
12088;SDS011;6107;49.078;8.578;2022-08-01T07:03:43;4.13;;;2.70;;
12088;SDS011;6107;49.078;8.578;2022-08-01T07:06:09;3.05;;;2.58;;
12088;SDS011;6107;49.078;8.578;2022-08-01T07:08:35;5.22;;;2.80;;
12088;SDS011;6107;49.078;8.578;2022-08-01T07:11:01;3.15;;;2.50;;
12088;SDS011;6107;49.078;8.578;2022-08-01T07:13:28;4.07;;;2.40;;
12088;SDS011;6107;49.078;8.578;2022-08-01T07:15:56;7.50;;;2.30;;
12088;SDS011;6107;49.078;8.578;2022-08-01T07:18:22;3.03;;;2.10;;
12088;SDS011;6107;49.078;8.578;2022-08-01T07:20:48;4.25;;;2.03;;
12088;SDS011;6107;49.078;8.578;2022-08-01T07:23:15;3.75;;;2.20;;
12088;SDS011;6107;49.078;8.578;2022-08-01T07:25:41;3.70;;;1.83;;
12088;SDS011;6107;49.078;8.578;2022-08-01T07:28:07;1.98;;;1.75;;
12088;SDS011;6107;49.078;8.578;2022-08-01T07:30:33;2.50;;;2.17;;
12088;SDS011;6107;49.078;8.578;2022-08-01T07:32:59;3.38;;;1.90;;
12088;SDS011;6107;49.078;8.578;2022-08-01T07:35:25;3.65;;;2.00;;
12088;SDS011;6107;49.078;8.578;2022-08-01T07:37:51;2.85;;;1.88;;
12088;SDS011;6107;49.078;8.578;2022-08-01T07:40:18;2.33;;;1.80;;
12088;SDS011;6107;49.078;8.578;2022-08-01T07:42:44;3.17;;;2.20;;
12088;SDS011;6107;49.078;8.578;2022-08-01T07:45:10;2.60;;;1.85;;
12088;SDS011;6107;49.078;8.578;2022-08-01T07:47:37;2.00;;;1.80;;
12088;SDS011;6107;49.078;8.578;2022-08-01T07:50:03;2.28;;;1.80;;
12088;SDS011;6107;49.078;8.578;2022-08-01T07:52:30;2.08;;;1.80;;
12088;SDS011;6107;49.078;8.578;2022-08-01T07:54:56;2.05;;;1.85;;
12088;SDS011;6107;49.078;8.578;2022-08-01T07:57:23;2.22;;;1.60;;
12088;SDS011;6107;49.078;8.578;2022-08-01T07:59:49;2.08;;;1.70;;
12088;SDS011;6107;49.078;8.578;2022-08-01T08:02:15;2.80;;;1.85;;
12088;SDS011;6107;49.078;8.578;2022-08-01T08:04:41;1.50;;;1.40;;
12088;SDS011;6107;49.078;8.578;2022-08-01T08:07:07;1.77;;;1.40;;
12088;SDS011;6107;49.078;8.578;2022-08-01T08:09:33;4.38;;;1.67;;
12088;SDS011;6107;49.078;8.578;2022-08-01T08:11:59;2.55;;;1.50;;
12088;SDS011;6107;49.078;8.578;2022-08-01T08:14:25;2.00;;;1.73;;
12088;SDS011;6107;49.078;8.578;2022-08-01T08:16:51;1.42;;;1.33;;
12088;SDS011;6107;49.078;8.578;2022-08-01T08:19:17;1.70;;;1.42;;
12088;SDS011;6107;49.078;8.578;2022-08-01T08:21:43;2.35;;;1.60;;
12088;SDS011;6107;49.078;8.578;2022-08-01T08:24:09;2.17;;;1.60;;
12088;SDS011;6107;49.078;8.578;2022-08-01T08:26:48;1.85;;;1.60;;
12088;SDS011;6107;49.078;8.578;2022-08-01T08:29:14;2.00;;;1.73;;
12088;SDS011;6107;49.078;8.578;2022-08-01T08:31:40;1.65;;;1.55;;
12088;SDS011;6107;49.078;8.578;2022-08-01T08:34:06;2.08;;;1.75;;
12088;SDS011;6107;49.078;8.578;2022-08-01T08:36:32;2.80;;;1.88;;
12088;SDS011;6107;49.078;8.578;2022-08-01T08:38:58;2.63;;;1.90;;
12088;SDS011;6107;49.078;8.578;2022-08-01T08:41:31;2.72;;;1.70;;
12088;SDS011;6107;49.078;8.578;2022-08-01T08:43:57;4.82;;;1.80;;
12088;SDS011;6107;49.078;8.578;2022-08-01T08:46:25;2.17;;;1.58;;
12088;SDS011;6107;49.078;8.578;2022-08-01T08:48:51;3.03;;;1.88;;
12088;SDS011;6107;49.078;8.578;2022-08-01T08:51:18;2.33;;;1.90;;
12088;SDS011;6107;49.078;8.578;2022-08-01T08:53:45;4.95;;;2.30;;
12088;SDS011;6107;49.078;8.578;2022-08-01T08:56:12;3.67;;;2.10;;
12088;SDS011;6107;49.078;8.578;2022-08-01T08:58:39;4.07;;;2.13;;
12088;SDS011;6107;49.078;8.578;2022-08-01T09:01:06;3.05;;;2.15;;
12088;SDS011;6107;49.078;8.578;2022-08-01T09:03:37;4.40;;;2.00;;
12088;SDS011;6107;49.078;8.578;2022-08-01T09:06:03;4.18;;;1.90;;
12088;SDS011;6107;49.078;8.578;2022-08-01T09:08:29;3.05;;;2.10;;
12088;SDS011;6107;49.078;8.578;2022-08-01T09:10:55;3.10;;;2.03;;
12088;SDS011;6107;49.078;8.578;2022-08-01T09:13:21;2.15;;;1.80;;
12088;SDS011;6107;49.078;8.578;2022-08-01T09:15:51;2.45;;;2.22;;
12088;SDS011;6107;49.078;8.578;2022-08-01T09:18:42;3.08;;;2.00;;
12088;SDS011;6107;49.078;8.578;2022-08-01T09:21:20;4.53;;;2.00;;
12088;SDS011;6107;49.078;8.578;2022-08-01T09:23:52;2.63;;;2.35;;
12088;SDS011;6107;49.078;8.578;2022-08-01T09:26:19;4.25;;;2.13;;
12088;SDS011;6107;49.078;8.578;2022-08-01T09:28:46;2.80;;;2.10;;
12088;SDS011;6107;49.078;8.578;2022-08-01T09:31:13;3.83;;;2.20;;
12088;SDS011;6107;49.078;8.578;2022-08-01T09:33:46;2.55;;;2.35;;
12088;SDS011;6107;49.078;8.578;2022-08-01T09:36:26;3.10;;;2.25;;
12088;SDS011;6107;49.078;8.578;2022-08-01T09:38:54;3.55;;;2.17;;
12088;SDS011;6107;49.078;8.578;2022-08-01T09:41:30;2.30;;;2.10;;
12088;SDS011;6107;49.078;8.578;2022-08-01T09:43:56;3.65;;;2.40;;
12088;SDS011;6107;49.078;8.578;2022-08-01T09:46:22;4.25;;;2.75;;
12088;SDS011;6107;49.078;8.578;2022-08-01T09:48:55;3.30;;;2.20;;
12088;SDS011;6107;49.078;8.578;2022-08-01T09:51:38;2.60;;;2.10;;
12088;SDS011;6107;49.078;8.578;2022-08-01T09:54:05;3.03;;;2.33;;
12088;SDS011;6107;49.078;8.578;2022-08-01T09:56:36;3.22;;;2.40;;
12088;SDS011;6107;49.078;8.578;2022-08-01T09:59:02;3.03;;;2.50;;
12088;SDS011;6107;49.078;8.578;2022-08-01T10:01:39;2.78;;;2.30;;
12088;SDS011;6107;49.078;8.578;2022-08-01T10:04:45;2.60;;;2.20;;
12088;SDS011;6107;49.078;8.578;2022-08-01T10:07:06;4.07;;;2.30;;
12088;SDS011;6107;49.078;8.578;2022-08-01T10:09:33;2.78;;;2.42;;
12088;SDS011;6107;49.078;8.578;2022-08-01T10:12:01;2.47;;;1.88;;
12088;SDS011;6107;49.078;8.578;2022-08-01T10:14:27;2.88;;;2.10;;
12088;SDS011;6107;49.078;8.578;2022-08-01T10:16:55;1.98;;;1.83;;
12088;SDS011;6107;49.078;8.578;2022-08-01T10:19:22;2.28;;;2.00;;
12088;SDS011;6107;49.078;8.578;2022-08-01T10:21:48;2.80;;;1.88;;
12088;SDS011;6107;49.078;8.578;2022-08-01T10:24:17;4.10;;;2.20;;
12088;SDS011;6107;49.078;8.578;2022-08-01T10:26:48;2.80;;;2.03;;
12088;SDS011;6107;49.078;8.578;2022-08-01T10:29:16;4.32;;;2.10;;
12088;SDS011;6107;49.078;8.578;2022-08-01T10:31:43;2.50;;;2.00;;
12088;SDS011;6107;49.078;8.578;2022-08-01T10:34:10;3.10;;;1.90;;
12088;SDS011;6107;49.078;8.578;2022-08-01T10:36:37;2.50;;;2.13;;
12088;SDS011;6107;49.078;8.578;2022-08-01T10:39:04;3.03;;;2.17;;
12088;SDS011;6107;49.078;8.578;2022-08-01T10:41:32;2.22;;;1.95;;
12088;SDS011;6107;49.078;8.578;2022-08-01T10:43:58;5.47;;;2.00;;
12088;SDS011;6107;49.078;8.578;2022-08-01T10:46:27;3.70;;;2.20;;
12088;SDS011;6107;49.078;8.578;2022-08-01T10:49:00;2.42;;;2.03;;
12088;SDS011;6107;49.078;8.578;2022-08-01T10:51:31;2.20;;;2.00;;
12088;SDS011;6107;49.078;8.578;2022-08-01T10:54:02;2.88;;;2.00;;
12088;SDS011;6107;49.078;8.578;2022-08-01T10:56:44;3.72;;;1.90;;
12088;SDS011;6107;49.078;8.578;2022-08-01T10:59:10;3.90;;;1.90;;
12088;SDS011;6107;49.078;8.578;2022-08-01T11:02:05;4.20;;;2.10;;
12088;SDS011;6107;49.078;8.578;2022-08-01T11:04:41;2.78;;;1.80;;
12088;SDS011;6107;49.078;8.578;2022-08-01T11:07:17;2.55;;;2.30;;
12088;SDS011;6107;49.078;8.578;2022-08-01T11:09:46;2.50;;;2.13;;
12088;SDS011;6107;49.078;8.578;2022-08-01T11:12:16;3.65;;;1.77;;
12088;SDS011;6107;49.078;8.578;2022-08-01T11:20:25;2.63;;;1.90;;
12088;SDS011;6107;49.078;8.578;2022-08-01T11:25:27;2.50;;;2.00;;
12088;SDS011;6107;49.078;8.578;2022-08-01T11:28:31;3.15;;;2.05;;
12088;SDS011;6107;49.078;8.578;2022-08-01T11:30:54;2.47;;;2.08;;
12088;SDS011;6107;49.078;8.578;2022-08-01T11:38:38;2.10;;;1.90;;
12088;SDS011;6107;49.078;8.578;2022-08-01T11:46:47;2.47;;;2.00;;
12088;SDS011;6107;49.078;8.578;2022-08-01T11:49:23;1.95;;;1.75;;
12088;SDS011;6107;49.078;8.578;2022-08-01T11:51:56;2.95;;;1.92;;
12088;SDS011;6107;49.078;8.578;2022-08-01T11:54:39;2.38;;;2.10;;
12088;SDS011;6107;49.078;8.578;2022-08-01T11:57:10;3.85;;;1.95;;
12088;SDS011;6107;49.078;8.578;2022-08-01T11:59:46;2.38;;;2.17;;
12088;SDS011;6107;49.078;8.578;2022-08-01T12:02:17;2.20;;;2.00;;
12088;SDS011;6107;49.078;8.578;2022-08-01T12:04:52;2.30;;;2.10;;
12088;SDS011;6107;49.078;8.578;2022-08-01T12:07:19;1.88;;;1.77;;
12088;SDS011;6107;49.078;8.578;2022-08-01T12:09:46;2.22;;;1.80;;
12088;SDS011;6107;49.078;8.578;2022-08-01T12:12:14;3.67;;;2.00;;
12088;SDS011;6107;49.078;8.578;2022-08-01T12:14:42;2.25;;;1.98;;
12088;SDS011;6107;49.078;8.578;2022-08-01T12:17:07;1.70;;;1.60;;
12088;SDS011;6107;49.078;8.578;2022-08-01T12:19:33;2.03;;;1.73;;
12088;SDS011;6107;49.078;8.578;2022-08-01T12:22:08;2.15;;;1.90;;
12088;SDS011;6107;49.078;8.578;2022-08-01T12:24:36;4.60;;;2.00;;
12088;SDS011;6107;49.078;8.578;2022-08-01T12:27:02;3.17;;;1.90;;
12088;SDS011;6107;49.078;8.578;2022-08-01T12:32:02;2.72;;;1.73;;
12088;SDS011;6107;49.078;8.578;2022-08-01T12:34:29;2.58;;;1.90;;
12088;SDS011;6107;49.078;8.578;2022-08-01T12:36:58;2.40;;;1.60;;
12088;SDS011;6107;49.078;8.578;2022-08-01T12:39:31;2.13;;;1.73;;
12088;SDS011;6107;49.078;8.578;2022-08-01T12:41:58;2.97;;;2.00;;
12088;SDS011;6107;49.078;8.578;2022-08-01T12:44:23;2.10;;;1.90;;
12088;SDS011;6107;49.078;8.578;2022-08-01T12:46:49;4.20;;;2.33;;
12088;SDS011;6107;49.078;8.578;2022-08-01T12:49:16;4.30;;;1.80;;
12088;SDS011;6107;49.078;8.578;2022-08-01T12:51:42;2.10;;;1.85;;
12088;SDS011;6107;49.078;8.578;2022-08-01T12:54:18;2.03;;;1.60;;
12088;SDS011;6107;49.078;8.578;2022-08-01T12:56:44;2.03;;;1.83;;
12088;SDS011;6107;49.078;8.578;2022-08-01T12:59:20;1.70;;;1.60;;
12088;SDS011;6107;49.078;8.578;2022-08-01T13:01:49;2.03;;;1.83;;
12088;SDS011;6107;49.078;8.578;2022-08-01T13:04:15;2.30;;;1.80;;
12088;SDS011;6107;49.078;8.578;2022-08-01T13:06:41;1.83;;;1.67;;
12088;SDS011;6107;49.078;8.578;2022-08-01T13:09:10;2.03;;;1.83;;
12088;SDS011;6107;49.078;8.578;2022-08-01T13:11:37;2.45;;;1.73;;
12088;SDS011;6107;49.078;8.578;2022-08-01T13:14:03;1.70;;;1.60;;
12088;SDS011;6107;49.078;8.578;2022-08-01T13:16:28;1.70;;;1.60;;
12088;SDS011;6107;49.078;8.578;2022-08-01T13:18:55;1.63;;;1.52;;
12088;SDS011;6107;49.078;8.578;2022-08-01T13:21:25;1.80;;;1.50;;
12088;SDS011;6107;49.078;8.578;2022-08-01T13:24:05;4.63;;;1.73;;
12088;SDS011;6107;49.078;8.578;2022-08-01T13:29:15;1.70;;;1.60;;
12088;SDS011;6107;49.078;8.578;2022-08-01T13:31:46;2.20;;;1.60;;
12088;SDS011;6107;49.078;8.578;2022-08-01T13:34:12;2.72;;;1.75;;
12088;SDS011;6107;49.078;8.578;2022-08-01T13:36:38;2.47;;;1.60;;
12088;SDS011;6107;49.078;8.578;2022-08-01T13:39:04;2.05;;;1.55;;
12088;SDS011;6107;49.078;8.578;2022-08-01T13:41:49;2.03;;;1.48;;
12088;SDS011;6107;49.078;8.578;2022-08-01T13:44:15;2.15;;;1.40;;
12088;SDS011;6107;49.078;8.578;2022-08-01T13:46:41;2.15;;;1.45;;
12088;SDS011;6107;49.078;8.578;2022-08-01T13:49:08;2.05;;;1.27;;
12088;SDS011;6107;49.078;8.578;2022-08-01T13:51:34;1.50;;;1.40;;
12088;SDS011;6107;49.078;8.578;2022-08-01T13:54:00;1.90;;;1.50;;
12088;SDS011;6107;49.078;8.578;2022-08-01T13:56:27;1.60;;;1.50;;
12088;SDS011;6107;49.078;8.578;2022-08-01T13:58:53;3.05;;;1.77;;
12088;SDS011;6107;49.078;8.578;2022-08-01T14:01:19;2.95;;;1.52;;
12088;SDS011;6107;49.078;8.578;2022-08-01T14:03:45;1.65;;;1.38;;
12088;SDS011;6107;49.078;8.578;2022-08-01T14:06:11;1.60;;;1.50;;
12088;SDS011;6107;49.078;8.578;2022-08-01T14:08:38;1.88;;;1.55;;
12088;SDS011;6107;49.078;8.578;2022-08-01T14:11:04;2.65;;;1.65;;
12088;SDS011;6107;49.078;8.578;2022-08-01T14:13:30;1.50;;;1.40;;
12088;SDS011;6107;49.078;8.578;2022-08-01T14:15:55;2.15;;;1.70;;
12088;SDS011;6107;49.078;8.578;2022-08-01T14:18:21;1.33;;;1.23;;
12088;SDS011;6107;49.078;8.578;2022-08-01T14:20:47;1.83;;;1.52;;
12088;SDS011;6107;49.078;8.578;2022-08-01T14:23:12;1.42;;;1.30;;
12088;SDS011;6107;49.078;8.578;2022-08-01T14:25:38;1.40;;;1.30;;
12088;SDS011;6107;49.078;8.578;2022-08-01T14:28:05;1.98;;;1.30;;
12088;SDS011;6107;49.078;8.578;2022-08-01T14:30:31;4.78;;;1.40;;
12088;SDS011;6107;49.078;8.578;2022-08-01T14:32:57;1.63;;;1.30;;
12088;SDS011;6107;49.078;8.578;2022-08-01T14:35:22;1.88;;;1.20;;
12088;SDS011;6107;49.078;8.578;2022-08-01T14:37:48;2.22;;;1.50;;
12088;SDS011;6107;49.078;8.578;2022-08-01T14:40:13;2.00;;;1.40;;
12088;SDS011;6107;49.078;8.578;2022-08-01T14:42:39;1.80;;;1.30;;
12088;SDS011;6107;49.078;8.578;2022-08-01T14:45:05;1.73;;;1.40;;
12088;SDS011;6107;49.078;8.578;2022-08-01T14:47:37;2.85;;;1.50;;
12088;SDS011;6107;49.078;8.578;2022-08-01T14:50:04;2.33;;;1.50;;
12088;SDS011;6107;49.078;8.578;2022-08-01T14:52:31;2.90;;;1.60;;
12088;SDS011;6107;49.078;8.578;2022-08-01T14:54:58;1.40;;;1.30;;
12088;SDS011;6107;49.078;8.578;2022-08-01T14:57:24;1.50;;;1.40;;
12088;SDS011;6107;49.078;8.578;2022-08-01T14:59:50;1.92;;;1.30;;
12088;SDS011;6107;49.078;8.578;2022-08-01T15:02:15;1.35;;;1.20;;
12088;SDS011;6107;49.078;8.578;2022-08-01T15:04:42;1.40;;;1.30;;
12088;SDS011;6107;49.078;8.578;2022-08-01T15:07:09;2.53;;;1.20;;
12088;SDS011;6107;49.078;8.578;2022-08-01T15:09:35;1.75;;;1.42;;
12088;SDS011;6107;49.078;8.578;2022-08-01T15:12:00;2.00;;;1.52;;
12088;SDS011;6107;49.078;8.578;2022-08-01T15:14:26;3.30;;;1.42;;
12088;SDS011;6107;49.078;8.578;2022-08-01T15:17:10;1.63;;;1.50;;
12088;SDS011;6107;49.078;8.578;2022-08-01T15:19:35;1.40;;;1.30;;
12088;SDS011;6107;49.078;8.578;2022-08-01T15:22:01;1.75;;;1.23;;
12088;SDS011;6107;49.078;8.578;2022-08-01T15:24:26;1.90;;;1.33;;
12088;SDS011;6107;49.078;8.578;2022-08-01T15:26:52;2.70;;;1.50;;
12088;SDS011;6107;49.078;8.578;2022-08-01T15:29:17;1.90;;;1.30;;
12088;SDS011;6107;49.078;8.578;2022-08-01T15:31:43;3.15;;;1.30;;
12088;SDS011;6107;49.078;8.578;2022-08-01T15:34:08;1.65;;;1.55;;
12088;SDS011;6107;49.078;8.578;2022-08-01T15:36:34;2.53;;;1.85;;